Time;durP1;ratioP1;P1;durP2;ratioP2;P2;SDS_P1;SDS_P2;PMS_P1;PMS_P2;Temp;Humidity;BMP_temperature;BMP_pressure;BME280_temperature;BME280_humidity;BME280_pressure;Samples;Min_cycle;Max_cycle;Signal;HPM_P1;HPM_P2
2023/03/29 00:00:34;;;;;;;2.90;2.70;;;;;;;;;;4992252;28;20438;-64
2023/03/29 00:03:02;;;;;;;2.50;2.40;;;;;;;;;;4992742;28;20418;-64
2023/03/29 00:05:33;;;;;;;2.83;2.63;;;;;;;;;;4992556;28;20878;-64
2023/03/29 00:08:03;;;;;;;3.00;2.70;;;;;;;;;;4992502;28;20885;-64
2023/03/29 00:10:31;;;;;;;3.33;3.13;;;;;;;;;;4991515;28;20445;-64
2023/03/29 00:12:57;;;;;;;3.17;3.03;;;;;;;;;;4992115;28;20708;-64
2023/03/29 00:15:23;;;;;;;2.80;2.70;;;;;;;;;;4992671;28;21031;-64
2023/03/29 00:17:49;;;;;;;3.23;2.90;;;;;;;;;;4991105;28;20479;-64
2023/03/29 00:20:20;;;;;;;2.90;2.77;;;;;;;;;;4992271;28;20428;-63
2023/03/29 00:22:48;;;;;;;2.87;2.73;;;;;;;;;;4992323;28;20421;-64
2023/03/29 00:25:14;;;;;;;2.80;2.70;;;;;;;;;;4991061;28;20469;-64
2023/03/29 00:27:40;;;;;;;3.37;2.20;;;;;;;;;;4992303;28;20426;-64
2023/03/29 00:30:07;;;;;;;3.27;3.07;;;;;;;;;;4991175;28;20495;-64
2023/03/29 00:32:33;;;;;;;2.80;2.60;;;;;;;;;;4990825;28;20436;-64
2023/03/29 00:34:59;;;;;;;2.67;2.57;;;;;;;;;;4992512;28;20444;-64
2023/03/29 00:37:28;;;;;;;4.30;3.73;;;;;;;;;;4993842;28;20434;-63
2023/03/29 00:39:54;;;;;;;4.23;3.93;;;;;;;;;;4995882;28;20796;-65
2023/03/29 00:42:23;;;;;;;4.10;3.83;;;;;;;;;;4996103;28;20428;-64
2023/03/29 00:45:04;;;;;;;4.73;4.17;;;;;;;;;;4995914;28;20532;-63
2023/03/29 00:47:34;;;;;;;5.50;5.00;;;;;;;;;;4995717;28;20443;-63
2023/03/29 00:50:02;;;;;;;4.50;4.30;;;;;;;;;;4995653;28;20826;-64
2023/03/29 00:52:30;;;;;;;6.20;3.60;;;;;;;;;;4995563;28;20417;-64
2023/03/29 00:55:01;;;;;;;3.43;3.23;;;;;;;;;;4995349;28;20503;-64
2023/03/29 00:57:31;;;;;;;3.53;3.23;;;;;;;;;;4995959;28;20720;-63
2023/03/29 00:59:58;;;;;;;3.90;3.60;;;;;;;;;;4994170;28;20511;-63
2023/03/29 01:02:25;;;;;;;3.33;3.13;;;;;;;;;;4995930;28;20433;-63
2023/03/29 01:05:04;;;;;;;6.43;3.10;;;;;;;;;;4995357;28;20469;-63
2023/03/29 01:07:40;;;;;;;4.23;3.03;;;;;;;;;;4995734;28;20564;-63
2023/03/29 01:10:18;;;;;;;3.87;3.47;;;;;;;;;;4995369;28;20421;-64
2023/03/29 01:12:47;;;;;;;3.60;3.40;;;;;;;;;;4995500;28;20417;-64
2023/03/29 01:15:19;;;;;;;4.23;3.60;;;;;;;;;;4995156;28;20426;-64
2023/03/29 01:17:49;;;;;;;6.07;4.00;;;;;;;;;;4995371;28;20413;-64
2023/03/29 01:20:42;;;;;;;11.83;6.80;;;;;;;;;;4994980;28;20457;-64
2023/03/29 01:23:12;;;;;;;7.00;5.53;;;;;;;;;;4995091;28;20441;-64
2023/03/29 01:25:51;;;;;;;6.30;5.30;;;;;;;;;;4995203;28;20470;-64
2023/03/29 01:28:30;;;;;;;11.37;6.40;;;;;;;;;;4995066;28;20434;-64
2023/03/29 01:31:00;;;;;;;5.50;4.20;;;;;;;;;;4994649;28;20497;-64
2023/03/29 01:33:41;;;;;;;6.60;4.50;;;;;;;;;;4994895;28;20489;-64
2023/03/29 01:36:19;;;;;;;6.97;5.33;;;;;;;;;;4994520;28;20984;-64
2023/03/29 01:38:53;;;;;;;12.10;6.40;;;;;;;;;;4994803;28;20464;-64
2023/03/29 01:41:19;;;;;;;9.60;6.10;;;;;;;;;;4994748;28;20426;-64
2023/03/29 01:43:45;;;;;;;12.20;6.70;;;;;;;;;;4994753;28;20429;-64
2023/03/29 01:46:17;;;;;;;21.63;10.53;;;;;;;;;;4994762;28;20467;-63
2023/03/29 01:48:43;;;;;;;16.53;10.90;;;;;;;;;;4993384;28;20414;-63
2023/03/29 01:51:15;;;;;;;17.53;8.80;;;;;;;;;;4994543;28;20409;-64
2023/03/29 01:53:50;;;;;;;13.27;8.07;;;;;;;;;;4994564;28;20538;-66
2023/03/29 01:56:18;;;;;;;9.37;6.50;;;;;;;;;;4993232;28;20456;-64
2023/03/29 01:58:45;;;;;;;4.03;3.73;;;;;;;;;;4994665;28;20529;-64
2023/03/29 02:01:15;;;;;;;4.83;4.37;;;;;;;;;;4994125;28;21005;-64
2023/03/29 02:03:46;;;;;;;4.30;4.00;;;;;;;;;;4994685;28;20413;-64
2023/03/29 02:06:14;;;;;;;2.90;2.80;;;;;;;;;;4994545;28;20465;-63
2023/03/29 02:08:41;;;;;;;2.40;2.23;;;;;;;;;;4993806;28;20496;-64
2023/03/29 02:11:07;;;;;;;5.50;2.80;;;;;;;;;;4992876;28;20406;-64
2023/03/29 02:13:34;;;;;;;5.33;3.30;;;;;;;;;;4992648;28;20871;-64
2023/03/29 02:16:03;;;;;;;3.30;3.13;;;;;;;;;;4994393;28;20453;-64
2023/03/29 02:18:30;;;;;;;3.03;2.57;;;;;;;;;;4993724;28;21075;-65
2023/03/29 02:20:57;;;;;;;2.50;2.40;;;;;;;;;;4994350;28;20480;-64
2023/03/29 02:23:32;;;;;;;2.40;2.30;;;;;;;;;;4994166;28;20421;-64
2023/03/29 02:25:59;;;;;;;2.43;2.30;;;;;;;;;;4994169;28;20552;-65
2023/03/29 02:28:25;;;;;;;18.63;2.80;;;;;;;;;;4993588;28;20488;-64
2023/03/29 02:31:11;;;;;;;3.23;2.30;;;;;;;;;;4993318;28;20402;-64
2023/03/29 02:33:52;;;;;;;3.13;2.83;;;;;;;;;;4994160;28;20838;-64
2023/03/29 02:36:22;;;;;;;2.23;2.13;;;;;;;;;;4992417;28;20925;-64
2023/03/29 02:38:48;;;;;;;5.37;2.30;;;;;;;;;;4992723;28;20418;-64
2023/03/29 02:41:17;;;;;;;2.83;2.63;;;;;;;;;;4992188;28;20459;-64
2023/03/29 02:43:45;;;;;;;2.33;2.23;;;;;;;;;;4993516;28;20406;-64
2023/03/29 02:46:12;;;;;;;3.33;2.60;;;;;;;;;;4993249;28;21082;-65
2023/03/29 02:48:40;;;;;;;2.70;2.60;;;;;;;;;;4993312;28;20504;-64
2023/03/29 02:51:13;;;;;;;3.00;2.90;;;;;;;;;;4993388;28;20468;-64
2023/03/29 02:53:46;;;;;;;2.33;2.23;;;;;;;;;;4993344;28;20414;-64
2023/03/29 02:56:13;;;;;;;4.00;2.60;;;;;;;;;;4993188;28;20467;-64
2023/03/29 02:58:39;;;;;;;2.93;2.83;;;;;;;;;;4992754;28;20998;-64
2023/03/29 03:01:06;;;;;;;2.80;2.70;;;;;;;;;;4992941;28;20533;-64
2023/03/29 03:03:32;;;;;;;2.63;2.53;;;;;;;;;;4992478;28;20443;-65
2023/03/29 03:06:01;;;;;;;2.93;2.70;;;;;;;;;;4993520;28;20506;-65
2023/03/29 03:08:27;;;;;;;2.73;2.63;;;;;;;;;;4993525;28;20425;-64
2023/03/29 03:10:53;;;;;;;5.50;3.17;;;;;;;;;;4993158;28;20410;-64
2023/03/29 03:13:20;;;;;;;3.43;2.93;;;;;;;;;;4994065;28;20413;-65
2023/03/29 03:15:47;;;;;;;2.90;2.80;;;;;;;;;;4993688;28;20422;-65
2023/03/29 03:18:14;;;;;;;2.90;2.80;;;;;;;;;;4994009;28;20409;-65
2023/03/29 03:20:45;;;;;;;3.63;3.37;;;;;;;;;;4976618;28;20416;-65
2023/03/29 03:23:11;;;;;;;3.07;2.90;;;;;;;;;;4992728;28;20428;-65
2023/03/29 03:25:37;;;;;;;3.50;3.30;;;;;;;;;;4993307;28;20483;-65
2023/03/29 03:28:06;;;;;;;3.17;2.97;;;;;;;;;;4992435;28;20406;-64
2023/03/29 03:30:34;;;;;;;2.20;2.10;;;;;;;;;;4991203;28;20535;-64
2023/03/29 03:33:03;;;;;;;1.83;1.73;;;;;;;;;;4992888;28;20417;-64
2023/03/29 03:35:29;;;;;;;2.60;1.50;;;;;;;;;;4993047;28;20441;-64
2023/03/29 03:37:57;;;;;;;14.83;1.60;;;;;;;;;;4992548;28;20424;-64
2023/03/29 03:40:23;;;;;;;1.00;1.00;;;;;;;;;;4993036;28;20492;-64
2023/03/29 03:42:50;;;;;;;1.50;1.43;;;;;;;;;;4992547;28;20787;-64
2023/03/29 03:45:16;;;;;;;1.60;1.50;;;;;;;;;;4992765;28;20460;-64
2023/03/29 03:47:41;;;;;;;1.53;1.43;;;;;;;;;;4992774;28;20443;-65
2023/03/29 03:50:08;;;;;;;1.37;1.27;;;;;;;;;;4993097;28;20513;-64
2023/03/29 03:52:34;;;;;;;1.70;1.60;;;;;;;;;;4992916;28;20481;-64
2023/03/29 03:55:02;;;;;;;2.07;1.97;;;;;;;;;;4992729;28;20409;-64
2023/03/29 03:57:28;;;;;;;1.83;1.53;;;;;;;;;;4992303;28;20425;-64
2023/03/29 03:59:56;;;;;;;40.43;29.63;;;;;;;;;;4992594;28;20437;-64
2023/03/29 04:02:25;;;;;;;1.90;1.80;;;;;;;;;;4992639;28;20478;-64
2023/03/29 04:04:51;;;;;;;1.33;1.33;;;;;;;;;;4992559;28;20477;-64
2023/03/29 04:07:17;;;;;;;1.30;1.30;;;;;;;;;;4992019;28;20413;-64
2023/03/29 04:09:43;;;;;;;3.37;1.30;;;;;;;;;;4991775;28;20456;-64
2023/03/29 04:12:10;;;;;;;2.20;1.13;;;;;;;;;;4993507;28;20413;-64
2023/03/29 04:14:36;;;;;;;3.40;1.80;;;;;;;;;;4996282;28;20417;-64
2023/03/29 04:17:02;;;;;;;1.37;1.30;;;;;;;;;;4996179;28;20425;-64
2023/03/29 04:19:28;;;;;;;6.90;5.63;;;;;;;;;;4996538;28;20421;-64
2023/03/29 04:21:54;;;;;;;2.20;1.17;;;;;;;;;;4996167;28;20406;-64
2023/03/29 04:24:20;;;;;;;1.80;1.70;;;;;;;;;;4996283;28;20471;-64
2023/03/29 04:26:49;;;;;;;1.80;1.70;;;;;;;;;;4996086;28;20457;-64
2023/03/29 04:29:15;;;;;;;1.33;1.33;;;;;;;;;;4996138;28;20801;-64
2023/03/29 04:31:43;;;;;;;1.77;1.77;;;;;;;;;;4995761;28;20966;-64
2023/03/29 04:34:09;;;;;;;1.63;1.57;;;;;;;;;;4996166;28;20896;-64
2023/03/29 04:36:35;;;;;;;1.40;1.30;;;;;;;;;;4995979;28;20426;-64
2023/03/29 04:39:03;;;;;;;2.13;2.00;;;;;;;;;;4995910;28;20409;-64
2023/03/29 04:41:29;;;;;;;1.57;1.30;;;;;;;;;;4994573;28;20508;-64
2023/03/29 04:43:57;;;;;;;2.50;1.63;;;;;;;;;;4995826;28;20532;-65
2023/03/29 04:46:26;;;;;;;1.80;1.70;;;;;;;;;;4995641;28;20986;-65
2023/03/29 04:48:52;;;;;;;1.93;1.80;;;;;;;;;;4995458;28;20417;-65
2023/03/29 04:51:20;;;;;;;2.37;2.27;;;;;;;;;;4995689;28;20494;-64
2023/03/29 04:53:47;;;;;;;2.43;2.30;;;;;;;;;;4995897;28;20473;-64
2023/03/29 04:56:13;;;;;;;24.70;19.90;;;;;;;;;;4994467;28;20428;-64
2023/03/29 04:58:43;;;;;;;2.80;2.70;;;;;;;;;;4995523;28;20830;-65
2023/03/29 05:01:09;;;;;;;3.93;2.40;;;;;;;;;;4995666;28;20441;-65
2023/03/29 05:03:35;;;;;;;2.20;2.10;;;;;;;;;;4995422;28;20417;-65
2023/03/29 05:06:05;;;;;;;1.90;1.80;;;;;;;;;;4994889;28;20556;-65
2023/03/29 05:08:31;;;;;;;1.57;1.30;;;;;;;;;;4995502;28;20426;-65
2023/03/29 05:11:00;;;;;;;1.50;1.50;;;;;;;;;;4993915;28;20513;-64
2023/03/29 05:13:26;;;;;;;4.13;1.60;;;;;;;;;;4995490;28;20413;-65
2023/03/29 05:15:55;;;;;;;1.60;1.60;;;;;;;;;;4995111;28;20773;-64
2023/03/29 05:18:21;;;;;;;1.87;1.50;;;;;;;;;;4995263;28;20449;-64
2023/03/29 05:20:50;;;;;;;2.03;1.57;;;;;;;;;;4994949;28;20451;-64
2023/03/29 05:23:16;;;;;;;1.67;1.30;;;;;;;;;;4994171;28;20436;-64
2023/03/29 05:25:42;;;;;;;7.97;1.50;;;;;;;;;;4995066;28;20465;-64
2023/03/29 05:28:09;;;;;;;1.47;1.40;;;;;;;;;;4994909;28;20502;-64
2023/03/29 05:30:35;;;;;;;1.63;1.53;;;;;;;;;;4995272;28;20414;-64
2023/03/29 05:33:01;;;;;;;2.30;1.77;;;;;;;;;;4993800;28;20437;-65
2023/03/29 05:35:27;;;;;;;1.47;1.47;;;;;;;;;;4994530;28;20414;-65
2023/03/29 05:37:55;;;;;;;2.87;1.70;;;;;;;;;;4994556;28;20453;-64
2023/03/29 05:40:21;;;;;;;1.50;1.50;;;;;;;;;;4994312;28;20814;-64
2023/03/29 05:42:47;;;;;;;1.70;1.60;;;;;;;;;;4993966;28;20430;-64
2023/03/29 05:45:13;;;;;;;1.70;1.60;;;;;;;;;;4991733;28;20534;-64
2023/03/29 05:47:38;;;;;;;1.97;1.87;;;;;;;;;;4994496;28;20413;-64
2023/03/29 05:50:08;;;;;;;1.57;1.57;;;;;;;;;;4994152;28;20405;-64
2023/03/29 05:52:37;;;;;;;1.87;1.77;;;;;;;;;;4994301;28;20920;-64
2023/03/29 05:55:04;;;;;;;3.00;2.17;;;;;;;;;;4993858;28;20532;-65
2023/03/29 05:57:30;;;;;;;1.87;1.77;;;;;;;;;;4994737;28;20432;-65
2023/03/29 05:59:56;;;;;;;1.53;1.53;;;;;;;;;;4994529;28;20444;-65
2023/03/29 06:02:24;;;;;;;1.70;1.70;;;;;;;;;;4994778;28;20417;-64
2023/03/29 06:04:50;;;;;;;4.67;2.23;;;;;;;;;;4994253;28;20457;-64
2023/03/29 06:07:17;;;;;;;5.30;1.77;;;;;;;;;;4994264;28;20421;-65
2023/03/29 06:09:46;;;;;;;2.30;1.77;;;;;;;;;;4994097;28;20414;-65
2023/03/29 06:12:12;;;;;;;1.77;1.67;;;;;;;;;;4994531;28;20928;-65
2023/03/29 06:14:39;;;;;;;1.53;1.53;;;;;;;;;;4994630;28;20472;-65
2023/03/29 06:17:04;;;;;;;1.80;1.70;;;;;;;;;;4994276;28;20417;-65
2023/03/29 06:19:31;;;;;;;2.93;1.63;;;;;;;;;;4994536;28;20440;-64
2023/03/29 06:21:59;;;;;;;2.70;2.10;;;;;;;;;;4994472;28;20422;-65
2023/03/29 06:24:25;;;;;;;2.00;1.70;;;;;;;;;;4993398;28;20894;-65
2023/03/29 06:26:52;;;;;;;2.57;1.70;;;;;;;;;;4994631;28;20458;-65
2023/03/29 06:29:18;;;;;;;1.60;1.60;;;;;;;;;;4994442;28;20944;-65
2023/03/29 06:31:44;;;;;;;1.33;1.33;;;;;;;;;;4994462;28;20496;-65
2023/03/29 06:34:12;;;;;;;1.60;1.43;;;;;;;;;;4994114;28;20413;-64
2023/03/29 06:36:38;;;;;;;1.87;1.60;;;;;;;;;;4994211;28;20421;-65
2023/03/29 06:39:07;;;;;;;3.03;1.70;;;;;;;;;;4992798;28;20440;-65
2023/03/29 06:41:33;;;;;;;2.63;1.63;;;;;;;;;;4994002;28;20439;-65
2023/03/29 06:43:59;;;;;;;3.13;1.80;;;;;;;;;;4994041;28;20781;-65
2023/03/29 06:46:25;;;;;;;1.87;1.77;;;;;;;;;;4993683;28;20560;-65
2023/03/29 06:48:52;;;;;;;2.10;1.43;;;;;;;;;;4994105;28;20412;-65
2023/03/29 06:51:18;;;;;;;2.03;1.77;;;;;;;;;;4993455;28;20439;-65
2023/03/29 06:53:44;;;;;;;2.63;1.70;;;;;;;;;;4993689;28;20417;-65
2023/03/29 06:56:10;;;;;;;4.10;1.80;;;;;;;;;;4993421;28;20886;-65
2023/03/29 06:58:36;;;;;;;1.40;1.40;;;;;;;;;;4993954;28;20401;-65
2023/03/29 07:01:02;;;;;;;1.60;1.47;;;;;;;;;;4993258;28;20446;-65
2023/03/29 07:03:29;;;;;;;1.60;1.50;;;;;;;;;;4993693;28;20456;-65
2023/03/29 07:06:08;;;;;;;1.53;1.43;;;;;;;;;;4993695;28;20810;-65
2023/03/29 07:08:39;;;;;;;1.70;1.60;;;;;;;;;;4991791;28;20410;-65
2023/03/29 07:11:05;;;;;;;1.50;1.50;;;;;;;;;;4992196;28;20897;-65
2023/03/29 07:13:31;;;;;;;1.00;1.00;;;;;;;;;;4992260;28;20413;-65
2023/03/29 07:15:57;;;;;;;1.80;1.70;;;;;;;;;;4993593;28;20449;-65
2023/03/29 07:18:24;;;;;;;1.27;1.27;;;;;;;;;;4993641;28;20883;-65
2023/03/29 07:20:51;;;;;;;5.63;1.50;;;;;;;;;;4993653;28;20520;-65
2023/03/29 07:23:17;;;;;;;1.13;1.13;;;;;;;;;;4994601;28;20794;-65
2023/03/29 07:25:43;;;;;;;2.27;1.43;;;;;;;;;;4994029;28;20780;-65
2023/03/29 07:28:10;;;;;;;0.90;0.90;;;;;;;;;;4994509;28;20794;-65
2023/03/29 07:30:38;;;;;;;1.13;1.13;;;;;;;;;;4993723;28;20440;-65
2023/03/29 07:33:04;;;;;;;3.50;1.30;;;;;;;;;;4993857;28;20468;-65
2023/03/29 07:35:31;;;;;;;1.27;1.27;;;;;;;;;;4992834;28;20441;-65
2023/03/29 07:37:57;;;;;;;1.00;1.00;;;;;;;;;;4993431;28;20409;-65
2023/03/29 07:40:26;;;;;;;23.13;13.23;;;;;;;;;;4993548;28;20444;-65
2023/03/29 07:42:55;;;;;;;3.17;1.20;;;;;;;;;;4993086;28;20410;-64
2023/03/29 07:45:22;;;;;;;1.53;1.40;;;;;;;;;;4992535;28;20568;-65
2023/03/29 07:47:48;;;;;;;1.37;1.27;;;;;;;;;;4993855;28;20413;-66
2023/03/29 07:50:18;;;;;;;1.60;1.60;;;;;;;;;;4997359;28;20417;-65
2023/03/29 07:52:44;;;;;;;1.10;1.10;;;;;;;;;;4996422;28;20912;-65
2023/03/29 07:55:11;;;;;;;1.33;1.23;;;;;;;;;;4996196;28;20402;-65
2023/03/29 07:57:40;;;;;;;1.27;1.27;;;;;;;;;;4996578;28;20542;-65
2023/03/29 08:00:25;;;;;;;1.40;1.30;;;;;;;;;;4995557;28;20437;-65
2023/03/29 08:02:51;;;;;;;5.40;1.87;;;;;;;;;;4996681;28;20600;-65
2023/03/29 08:05:18;;;;;;;1.17;1.17;;;;;;;;;;4996766;28;20461;-65
2023/03/29 08:07:45;;;;;;;4.00;1.60;;;;;;;;;;4996504;28;20413;-65
2023/03/29 08:10:12;;;;;;;1.67;1.50;;;;;;;;;;4995554;28;20513;-65
2023/03/29 08:12:39;;;;;;;1.30;1.30;;;;;;;;;;4996708;28;20812;-65
2023/03/29 08:15:06;;;;;;;2.40;1.23;;;;;;;;;;4996374;28;20414;-65
2023/03/29 08:17:33;;;;;;;1.60;1.50;;;;;;;;;;4996478;28;20445;-64
2023/03/29 08:20:00;;;;;;;4.50;1.50;;;;;;;;;;4996841;28;20456;-65
2023/03/29 08:22:26;;;;;;;1.50;1.40;;;;;;;;;;4996331;28;20813;-64
2023/03/29 08:24:52;;;;;;;1.20;1.20;;;;;;;;;;4996356;28;20471;-64
2023/03/29 08:27:18;;;;;;;1.27;1.27;;;;;;;;;;4995061;28;20925;-65
2023/03/29 08:29:44;;;;;;;1.23;1.13;;;;;;;;;;4995322;28;20425;-65
2023/03/29 08:32:10;;;;;;;3.90;1.30;;;;;;;;;;4996445;28;20980;-65
2023/03/29 08:34:39;;;;;;;1.27;1.20;;;;;;;;;;4996315;28;20418;-65
2023/03/29 08:37:05;;;;;;;1.80;1.70;;;;;;;;;;4996433;28;20443;-65
2023/03/29 08:39:31;;;;;;;2.23;1.20;;;;;;;;;;4996523;28;20418;-65
2023/03/29 08:42:00;;;;;;;2.37;1.20;;;;;;;;;;4995904;28;20414;-65
2023/03/29 08:44:54;;;;;;;1.30;1.30;;;;;;;;;;4996148;28;20426;-65
2023/03/29 08:47:25;;;;;;;2.53;1.10;;;;;;;;;;4996114;28;20454;-65
2023/03/29 08:49:52;;;;;;;0.97;0.97;;;;;;;;;;4994719;28;20423;-64
2023/03/29 08:52:38;;;;;;;1.07;1.07;;;;;;;;;;4996185;28;20451;-65
2023/03/29 08:55:13;;;;;;;1.13;1.10;;;;;;;;;;4996111;28;20417;-65
2023/03/29 08:57:41;;;;;;;1.03;1.00;;;;;;;;;;4995407;28;20445;-65
2023/03/29 09:00:10;;;;;;;1.10;1.00;;;;;;;;;;4995715;28;20442;-65
2023/03/29 09:02:36;;;;;;;1.73;1.63;;;;;;;;;;4995449;28;20532;-65
2023/03/29 09:05:17;;;;;;;1.53;1.53;;;;;;;;;;4995957;28;20553;-65
2023/03/29 09:07:43;;;;;;;1.90;1.10;;;;;;;;;;4995203;28;20440;-65
2023/03/29 09:10:15;;;;;;;1.40;1.33;;;;;;;;;;4995886;28;20829;-65
2023/03/29 09:12:50;;;;;;;4.13;1.00;;;;;;;;;;4995673;28;20879;-65
2023/03/29 09:15:35;;;;;;;1.87;1.10;;;;;;;;;;4994576;28;20440;-65
2023/03/29 09:18:21;;;;;;;1.20;1.10;;;;;;;;;;4995785;28;20411;-65
2023/03/29 09:21:08;;;;;;;1.40;1.30;;;;;;;;;;4995659;28;20408;-65
2023/03/29 09:23:52;;;;;;;4.73;1.20;;;;;;;;;;4995418;28;20880;-65
2023/03/29 09:26:24;;;;;;;1.50;1.40;;;;;;;;;;4995565;28;20460;-65
2023/03/29 09:28:59;;;;;;;1.50;1.50;;;;;;;;;;4995435;28;20421;-65
2023/03/29 09:31:27;;;;;;;1.30;1.30;;;;;;;;;;4995549;28;20396;-65
2023/03/29 09:34:01;;;;;;;1.60;1.57;;;;;;;;;;4994432;28;20439;-65
2023/03/29 09:36:36;;;;;;;1.23;1.23;;;;;;;;;;4996119;28;20414;-65
2023/03/29 09:39:03;;;;;;;1.20;1.10;;;;;;;;;;4995732;28;20789;-65
2023/03/29 09:41:34;;;;;;;1.50;1.50;;;;;;;;;;4995374;28;20458;-65
2023/03/29 09:44:02;;;;;;;1.83;1.20;;;;;;;;;;4995623;28;20795;-65
2023/03/29 09:46:34;;;;;;;1.47;1.33;;;;;;;;;;4995771;28;20462;-65
2023/03/29 09:49:04;;;;;;;1.10;1.10;;;;;;;;;;4995597;28;20689;-65
2023/03/29 09:51:32;;;;;;;1.20;1.10;;;;;;;;;;4995609;28;20487;-64
2023/03/29 09:53:59;;;;;;;1.47;1.40;;;;;;;;;;4995261;28;20453;-65
2023/03/29 09:56:25;;;;;;;1.00;1.00;;;;;;;;;;4994728;28;20922;-64
2023/03/29 09:58:52;;;;;;;1.57;1.47;;;;;;;;;;4994493;28;20434;-63
2023/03/29 10:01:18;;;;;;;1.77;1.63;;;;;;;;;;4994388;28;20430;-64
2023/03/29 10:03:50;;;;;;;1.43;1.33;;;;;;;;;;4993457;28;20489;-63
2023/03/29 10:06:17;;;;;;;1.20;1.20;;;;;;;;;;4994162;28;20838;-63
2023/03/29 10:08:46;;;;;;;1.03;1.03;;;;;;;;;;4994478;28;20429;-63
2023/03/29 10:11:17;;;;;;;1.50;1.50;;;;;;;;;;4993701;28;20408;-63
2023/03/29 10:13:49;;;;;;;1.70;1.60;;;;;;;;;;4994290;28;20515;-63
2023/03/29 10:16:20;;;;;;;1.50;1.40;;;;;;;;;;4994196;28;20443;-64
2023/03/29 10:18:46;;;;;;;2.10;1.40;;;;;;;;;;4993868;28;20446;-63
2023/03/29 10:21:23;;;;;;;3.07;1.67;;;;;;;;;;4993598;28;20407;-63
2023/03/29 10:23:50;;;;;;;1.77;1.67;;;;;;;;;;4994104;28;20416;-63
2023/03/29 10:26:25;;;;;;;4.90;1.60;;;;;;;;;;4993681;28;20469;-63
2023/03/29 10:29:00;;;;;;;1.40;1.30;;;;;;;;;;4993811;28;20436;-63
2023/03/29 10:31:28;;;;;;;1.40;1.40;;;;;;;;;;4993927;28;20409;-64
2023/03/29 10:33:55;;;;;;;1.90;1.80;;;;;;;;;;4993155;28;20519;-63
2023/03/29 10:36:22;;;;;;;6.60;1.50;;;;;;;;;;4994134;28;20490;-63
2023/03/29 10:38:49;;;;;;;1.50;1.40;;;;;;;;;;4993631;28;20447;-63
2023/03/29 10:41:16;;;;;;;3.67;1.30;;;;;;;;;;4993880;28;20960;-63
2023/03/29 10:43:48;;;;;;;2.07;1.50;;;;;;;;;;4993645;28;20444;-62
2023/03/29 10:46:22;;;;;;;2.00;1.30;;;;;;;;;;4993271;28;20556;-63
2023/03/29 10:48:49;;;;;;;4.03;1.50;;;;;;;;;;4993828;28;20431;-63
2023/03/29 10:51:21;;;;;;;4.63;1.60;;;;;;;;;;4993701;28;20478;-63
2023/03/29 10:53:49;;;;;;;1.70;1.60;;;;;;;;;;4993749;28;20449;-63
2023/03/29 10:56:15;;;;;;;4.00;1.53;;;;;;;;;;4993431;28;20911;-63
2023/03/29 10:59:09;;;;;;;1.20;1.20;;;;;;;;;;4993917;28;20474;-63
2023/03/29 11:01:38;;;;;;;3.10;1.90;;;;;;;;;;4993697;28;20482;-63
2023/03/29 11:04:12;;;;;;;1.10;1.10;;;;;;;;;;4993168;28;20429;-63
2023/03/29 11:06:42;;;;;;;1.97;1.73;;;;;;;;;;4992233;28;20543;-63
2023/03/29 11:09:47;;;;;;;0.80;0.80;;;;;;;;;;4992773;28;20442;-62
2023/03/29 11:12:13;;;;;;;4.73;1.57;;;;;;;;;;4971087;28;20900;-62
2023/03/29 11:14:45;;;;;;;3.33;1.50;;;;;;;;;;4977410;28;20439;-62
2023/03/29 11:17:11;;;;;;;3.63;1.43;;;;;;;;;;4991994;28;20416;-65
2023/03/29 11:19:40;;;;;;;1.47;1.47;;;;;;;;;;4992799;28;20424;-63
2023/03/29 11:22:06;;;;;;;1.70;1.60;;;;;;;;;;4992729;28;20503;-63
2023/03/29 11:24:56;;;;;;;2.77;1.30;;;;;;;;;;4993074;28;20841;-63
2023/03/29 11:27:22;;;;;;;4.33;1.70;;;;;;;;;;4992698;28;20528;-63
2023/03/29 11:29:50;;;;;;;1.10;1.10;;;;;;;;;;4991768;28;20495;-63
2023/03/29 11:32:28;;;;;;;1.60;1.50;;;;;;;;;;4992730;28;20472;-63
2023/03/29 11:35:12;;;;;;;3.70;1.50;;;;;;;;;;4993064;28;20416;-64
2023/03/29 11:37:47;;;;;;;2.00;1.70;;;;;;;;;;4992592;28;20408;-64
2023/03/29 11:40:35;;;;;;;2.83;1.87;;;;;;;;;;4993268;28;20536;-64
2023/03/29 11:43:04;;;;;;;1.40;1.40;;;;;;;;;;4991845;28;20488;-63
2023/03/29 11:45:36;;;;;;;3.77;1.57;;;;;;;;;;4992634;28;20878;-63
2023/03/29 11:48:04;;;;;;;1.47;1.37;;;;;;;;;;4992382;28;20437;-63
2023/03/29 11:50:50;;;;;;;2.03;1.70;;;;;;;;;;4992196;28;20546;-65
2023/03/29 11:53:21;;;;;;;5.40;2.00;;;;;;;;;;4991862;28;20440;-65
2023/03/29 11:55:48;;;;;;;1.63;1.23;;;;;;;;;;4992177;28;20431;-65
2023/03/29 11:58:21;;;;;;;4.20;1.47;;;;;;;;;;4992699;28;20422;-65
2023/03/29 12:00:55;;;;;;;3.40;1.57;;;;;;;;;;4992527;28;20446;-65
2023/03/29 12:03:37;;;;;;;1.70;1.60;;;;;;;;;;4992674;28;20461;-64
2023/03/29 12:06:15;;;;;;;1.57;1.40;;;;;;;;;;4992233;28;20544;-63
2023/03/29 12:08:49;;;;;;;4.40;1.80;;;;;;;;;;4993095;28;20804;-63
2023/03/29 12:11:21;;;;;;;1.33;1.20;;;;;;;;;;4992114;28;20497;-63
2023/03/29 12:13:51;;;;;;;1.63;1.53;;;;;;;;;;4992303;28;20440;-63
2023/03/29 12:16:22;;;;;;;1.67;1.57;;;;;;;;;;4992509;28;20427;-64
2023/03/29 12:18:50;;;;;;;1.90;1.77;;;;;;;;;;4991831;28;20450;-65
2023/03/29 12:21:23;;;;;;;2.10;1.50;;;;;;;;;;4991941;28;20426;-65
2023/03/29 12:23:50;;;;;;;1.67;1.67;;;;;;;;;;4992569;28;20553;-64
2023/03/29 12:26:16;;;;;;;1.67;1.57;;;;;;;;;;4992542;28;20496;-65
2023/03/29 12:29:08;;;;;;;2.50;1.80;;;;;;;;;;4992443;28;20492;-64
2023/03/29 12:31:43;;;;;;;1.70;1.60;;;;;;;;;;4992603;28;20485;-64
2023/03/29 12:34:33;;;;;;;1.70;1.60;;;;;;;;;;4995433;28;20502;-64
2023/03/29 12:37:00;;;;;;;1.60;1.50;;;;;;;;;;4996268;28;20433;-64
2023/03/29 12:39:28;;;;;;;1.30;1.20;;;;;;;;;;4996369;28;20770;-64
2023/03/29 12:42:04;;;;;;;1.97;1.20;;;;;;;;;;4996428;28;20411;-65
2023/03/29 12:44:35;;;;;;;2.97;1.70;;;;;;;;;;4996224;28;20809;-65
2023/03/29 12:47:01;;;;;;;1.30;1.30;;;;;;;;;;4995918;28;20551;-65
2023/03/29 12:49:34;;;;;;;1.50;1.50;;;;;;;;;;4996095;28;20634;-66
2023/03/29 12:52:01;;;;;;;1.83;1.60;;;;;;;;;;4995845;28;20413;-66
2023/03/29 12:54:30;;;;;;;5.73;1.50;;;;;;;;;;4995875;28;20440;-65
2023/03/29 12:56:59;;;;;;;1.60;1.50;;;;;;;;;;4994795;28;20437;-64
2023/03/29 12:59:38;;;;;;;1.73;1.63;;;;;;;;;;4996015;28;20453;-64
2023/03/29 13:02:13;;;;;;;3.27;1.47;;;;;;;;;;4995186;28;21228;-65
2023/03/29 13:04:42;;;;;;;1.60;1.50;;;;;;;;;;4994966;28;20451;-65
2023/03/29 13:07:26;;;;;;;2.60;1.60;;;;;;;;;;4995601;28;20562;-65
2023/03/29 13:09:52;;;;;;;1.60;1.50;;;;;;;;;;4996135;28;20524;-65
2023/03/29 13:12:25;;;;;;;3.73;1.60;;;;;;;;;;4995911;28;20453;-65
2023/03/29 13:15:02;;;;;;;2.10;1.63;;;;;;;;;;4995659;28;20964;-65
2023/03/29 13:17:45;;;;;;;1.73;1.63;;;;;;;;;;4995642;28;20433;-65
2023/03/29 13:20:11;;;;;;;2.10;1.57;;;;;;;;;;4996110;28;20436;-64
2023/03/29 13:23:05;;;;;;;5.13;2.03;;;;;;;;;;4995442;28;20512;-64
2023/03/29 13:25:49;;;;;;;2.30;1.43;;;;;;;;;;4995713;28;20961;-65
2023/03/29 13:28:22;;;;;;;1.87;1.77;;;;;;;;;;4995839;28;20422;-65
2023/03/29 13:30:51;;;;;;;3.63;1.60;;;;;;;;;;4995586;28;20434;-65
2023/03/29 13:33:37;;;;;;;1.93;1.50;;;;;;;;;;4995368;28;20916;-65
2023/03/29 13:36:21;;;;;;;5.93;1.57;;;;;;;;;;4995436;28;20415;-65
2023/03/29 13:38:49;;;;;;;3.07;1.87;;;;;;;;;;4995170;28;20801;-65
2023/03/29 13:41:41;;;;;;;2.50;1.50;;;;;;;;;;4993654;28;20460;-65
2023/03/29 13:44:33;;;;;;;1.83;1.73;;;;;;;;;;4993626;28;20444;-65
2023/03/29 13:47:03;;;;;;;2.30;1.43;;;;;;;;;;4994913;28;20498;-65
2023/03/29 13:49:31;;;;;;;17.60;2.00;;;;;;;;;;4994763;28;20445;-65
2023/03/29 13:52:38;;;;;;;5.43;1.80;;;;;;;;;;4994813;28;20417;-64
2023/03/29 13:55:07;;;;;;;3.83;1.40;;;;;;;;;;4973272;28;20429;-65
2023/03/29 13:57:38;;;;;;;2.20;1.40;;;;;;;;;;4973143;28;20421;-65
2023/03/29 14:00:11;;;;;;;2.03;1.53;;;;;;;;;;4984910;28;20446;-65
2023/03/29 14:02:40;;;;;;;1.87;1.30;;;;;;;;;;4994612;28;20416;-65
2023/03/29 14:05:08;;;;;;;1.83;1.67;;;;;;;;;;4994557;28;20474;-65
2023/03/29 14:07:37;;;;;;;4.00;1.63;;;;;;;;;;4994959;28;20484;-65
2023/03/29 14:10:03;;;;;;;2.40;1.30;;;;;;;;;;4994571;28;20809;-66
2023/03/29 14:12:34;;;;;;;2.60;1.60;;;;;;;;;;4994693;28;20412;-64
2023/03/29 14:15:02;;;;;;;2.50;1.83;;;;;;;;;;4994508;28;20980;-65
2023/03/29 14:17:28;;;;;;;2.97;1.60;;;;;;;;;;4994417;28;20411;-64
2023/03/29 14:19:56;;;;;;;2.80;1.50;;;;;;;;;;4994281;28;20448;-63
2023/03/29 14:22:22;;;;;;;5.37;2.20;;;;;;;;;;4994281;28;20416;-64
2023/03/29 14:24:53;;;;;;;1.40;1.30;;;;;;;;;;4994045;28;20415;-64
2023/03/29 14:27:19;;;;;;;2.40;1.20;;;;;;;;;;4994305;28;20420;-63
2023/03/29 14:29:50;;;;;;;2.70;1.67;;;;;;;;;;4994016;28;20421;-64
2023/03/29 14:32:29;;;;;;;4.87;1.43;;;;;;;;;;4994573;28;20847;-64
2023/03/29 14:34:55;;;;;;;3.13;1.27;;;;;;;;;;4993825;28;20896;-64
2023/03/29 14:37:23;;;;;;;10.13;1.57;;;;;;;;;;4994139;28;20497;-64
2023/03/29 14:39:49;;;;;;;6.10;1.83;;;;;;;;;;4994114;28;20435;-64
2023/03/29 14:42:19;;;;;;;3.23;2.00;;;;;;;;;;4993473;28;20410;-64
2023/03/29 14:44:46;;;;;;;6.03;1.73;;;;;;;;;;4993811;28;20441;-64
2023/03/29 14:47:15;;;;;;;5.03;1.90;;;;;;;;;;4993862;28;20799;-64
2023/03/29 14:49:41;;;;;;;1.90;1.10;;;;;;;;;;4993728;28;20531;-64
2023/03/29 14:52:12;;;;;;;4.83;1.53;;;;;;;;;;4993707;28;20438;-64
2023/03/29 14:54:39;;;;;;;5.17;1.70;;;;;;;;;;4994106;28;20481;-64
2023/03/29 14:57:06;;;;;;;3.60;1.77;;;;;;;;;;4993280;28;20417;-64
2023/03/29 14:59:43;;;;;;;3.13;1.90;;;;;;;;;;4993813;28;20421;-64